Anandale, Louisiana
Current Conditions -  °F | °C
As of 11:53 AM on Tuesday 21 Oct 2014 (Local Time) from KAEX Reporting Station
Few Clouds Few Clouds  
Wind Chill: 75°   Ceiling: Unl
Heat Index: 75°   Visibility: 10mi
Dew Point: 55°   Wind: 6mph
Humidity: 50%   Direction: 80°E
Pressure: 30.08"   Gusts: NA
Location:  31.2655°N, 92.4705°W
Report Text: KAEX 211653Z 08005KT 10SM FEW043 24/13 A3008 RMK AO2 SLP190 T02390128
Loading
Personal Weather Stations






























Interactive Weather Map New forecast layout! Learn more

10-Day Weather Forecast

Advertisements
Track Severe Weather on mobile